Time;durP1;ratioP1;P1;durP2;ratioP2;P2;SDS_P1;SDS_P2;PMS_P1;PMS_P2;Temp;Humidity;BMP_temperature;BMP_pressure;BME280_temperature;BME280_humidity;BME280_pressure;Samples;Min_cycle;Max_cycle;Signal;HPM_P1;HPM_P2
2021/09/05 00:02:19;;;;;;;20.97;5.50;;;;;;;7.04;69.86;99555.12;2211880;79;20996;-73
2021/09/05 00:05:20;;;;;;;23.30;6.10;;;;;;;7.07;69.71;99557.19;2212128;79;20970;-73
2021/09/05 00:08:22;;;;;;;22.32;6.05;;;;;;;7.02;69.92;99551.73;2211632;79;21093;-73
2021/09/05 00:11:23;;;;;;;26.57;9.48;;;;;;;7.03;70.12;99558.66;2211868;79;21068;-74
2021/09/05 00:14:25;;;;;;;21.90;5.40;;;;;;;7.06;70.19;99558.55;2211988;79;21076;-74
2021/09/05 00:17:28;;;;;;;20.75;5.83;;;;;;;7.01;70.11;99557.85;2211890;79;21559;-75
2021/09/05 00:20:30;;;;;;;21.42;5.50;;;;;;;6.90;70.25;99560.38;2211950;80;20970;-72
2021/09/05 00:23:31;;;;;;;27.45;8.50;;;;;;;6.68;70.41;99562.88;2212166;79;20974;-73
2021/09/05 00:26:32;;;;;;;28.83;7.42;;;;;;;6.41;70.28;99563.32;2212174;79;21461;-70
2021/09/05 00:29:34;;;;;;;25.20;7.25;;;;;;;6.33;71.34;99571.83;2212345;79;20981;-72
2021/09/05 00:32:35;;;;;;;26.23;7.45;;;;;;;6.37;71.21;99569.53;2212198;80;21027;-70
2021/09/05 00:35:37;;;;;;;24.12;6.80;;;;;;;6.35;71.39;99573.92;2211877;79;21574;-72
2021/09/05 00:38:38;;;;;;;28.12;6.50;;;;;;;6.30;71.42;99573.23;2212211;80;20950;-72
2021/09/05 00:41:40;;;;;;;20.13;5.53;;;;;;;6.34;71.44;99570.47;2212039;80;21092;-73
2021/09/05 00:44:41;;;;;;;17.65;4.37;;;;;;;6.38;71.45;99573.39;2212580;80;20984;-72
2021/09/05 00:47:43;;;;;;;19.52;5.08;;;;;;;6.21;71.01;99573.91;2212179;79;20937;-73
2021/09/05 00:50:44;;;;;;;18.50;4.50;;;;;;;6.02;71.53;99568.85;2212346;79;21005;-72
2021/09/05 00:53:46;;;;;;;25.05;7.15;;;;;;;5.95;71.34;99573.81;2212423;79;20977;-72
2021/09/05 00:56:47;;;;;;;31.02;9.05;;;;;;;5.93;71.73;99576.47;2212276;79;21507;-72
2021/09/05 00:59:49;;;;;;;25.02;6.95;;;;;;;6.03;71.71;99571.88;2212056;79;20969;-74
2021/09/05 01:02:50;;;;;;;25.25;7.50;;;;;;;6.09;71.65;99570.83;2211883;80;21624;-72
2021/09/05 01:05:52;;;;;;;25.65;6.87;;;;;;;6.11;71.69;99569.89;2212300;79;21009;-75
2021/09/05 01:08:53;;;;;;;23.92;6.90;;;;;;;5.99;71.56;99573.73;2212067;79;21033;-74
2021/09/05 01:11:56;;;;;;;;;;;;;;;6.04;71.72;99569.68;2214311;79;21521;-73
2021/09/05 01:14:57;;;;;;;22.58;6.60;;;;;;;6.04;71.93;99574.89;2212005;80;20166;-72
2021/09/05 01:17:58;;;;;;;25.97;7.05;;;;;;;5.95;71.78;99576.41;2212041;79;21535;-71
2021/09/05 01:21:00;;;;;;;25.05;6.95;;;;;;;5.82;71.89;99581.14;2212007;79;21049;-74
2021/09/05 01:24:01;;;;;;;28.20;8.38;;;;;;;5.71;71.83;99589.27;2212034;80;21050;-72
2021/09/05 01:27:03;;;;;;;26.42;7.75;;;;;;;5.67;72.08;99581.98;2212070;80;21035;-72
2021/09/05 01:30:04;;;;;;;26.77;7.83;;;;;;;5.78;72.05;99587.36;2211803;79;21085;-73
2021/09/05 01:33:06;;;;;;;25.08;6.95;;;;;;;5.85;72.22;99588.42;2212007;79;21550;-70
2021/09/05 01:36:07;;;;;;;21.27;5.55;;;;;;;5.94;72.03;99594.27;2211954;79;21025;-71
2021/09/05 01:39:09;;;;;;;23.67;6.42;;;;;;;5.78;71.79;99601.22;2211917;79;21543;-72
2021/09/05 01:42:10;;;;;;;23.55;6.35;;;;;;;5.77;71.88;99598.66;2212247;79;20997;-73
2021/09/05 01:45:11;;;;;;;23.75;5.85;;;;;;;5.80;71.93;99598.56;2212110;79;20981;-71
2021/09/05 01:48:13;;;;;;;20.05;5.75;;;;;;;5.81;71.96;99601.58;2212015;79;21029;-71
2021/09/05 01:51:14;;;;;;;22.00;5.70;;;;;;;5.83;72.16;99604.98;2212036;79;21090;-71
2021/09/05 01:54:26;;;;;;;23.80;7.00;;;;;;;5.92;71.71;99600.83;2212141;79;20961;-69
2021/09/05 01:57:27;;;;;;;25.25;6.67;;;;;;;5.96;71.78;99605.05;2211917;80;21040;-68
2021/09/05 02:00:28;;;;;;;22.00;6.28;;;;;;;6.06;71.81;99598.69;2211990;80;21021;-70
2021/09/05 02:03:30;;;;;;;23.40;6.10;;;;;;;6.07;71.41;99597.77;2211611;79;21567;-74
2021/09/05 02:06:31;;;;;;;23.35;6.10;;;;;;;6.03;71.67;99602.69;2212094;79;20960;-72
2021/09/05 02:09:33;;;;;;;23.10;5.40;;;;;;;6.02;71.52;99605.31;2211901;79;21040;-74
2021/09/05 02:12:34;;;;;;;21.23;5.47;;;;;;;5.85;71.34;99614.92;2212013;79;21094;-73
2021/09/05 02:15:36;;;;;;;19.92;5.47;;;;;;;5.56;71.78;99616.60;2211952;79;21041;-72
2021/09/05 02:18:37;;;;;;;22.35;6.78;;;;;;;5.48;72.08;99622.00;2212072;79;20980;-70
2021/09/05 02:21:39;;;;;;;20.92;6.78;;;;;;;5.49;72.00;99621.11;2211967;80;21053;-69
2021/09/05 02:24:40;;;;;;;23.85;6.95;;;;;;;5.58;71.92;99624.36;2211597;79;21606;-71
2021/09/05 02:27:42;;;;;;;23.77;7.53;;;;;;;5.62;71.79;99630.73;2212200;79;21012;-69
2021/09/05 02:30:43;;;;;;;25.15;7.60;;;;;;;5.53;71.96;99627.06;2212002;79;20930;-70
2021/09/05 02:33:44;;;;;;;21.12;7.78;;;;;;;5.49;72.14;99628.92;2212094;80;21331;-68
2021/09/05 02:36:46;;;;;;;24.32;8.45;;;;;;;5.60;72.16;99639.48;2211936;79;21032;-71
2021/09/05 02:39:47;;;;;;;23.70;7.28;;;;;;;5.58;71.83;99638.68;2211964;79;21519;-72
2021/09/05 02:42:49;;;;;;;24.20;6.72;;;;;;;5.44;71.98;99633.84;2211901;80;21100;-72
2021/09/05 02:45:50;;;;;;;23.25;6.78;;;;;;;5.28;71.96;99632.94;2211907;79;21548;-69
2021/09/05 02:48:53;;;;;;;;;;;;;;;5.26;72.25;99632.14;2214385;80;21438;-69
2021/09/05 02:51:55;;;;;;;23.12;8.05;;;;;;;5.28;72.30;99636.84;2211774;80;20163;-70
2021/09/05 02:54:56;;;;;;;24.90;8.65;;;;;;;5.39;72.37;99635.27;2212039;79;21591;-70
2021/09/05 02:57:58;;;;;;;22.30;7.80;;;;;;;5.45;72.01;99636.40;2211945;79;21021;-72
2021/09/05 03:00:59;;;;;;;23.57;7.72;;;;;;;5.36;71.66;99636.66;2211906;79;21002;-72
2021/09/05 03:04:01;;;;;;;21.73;7.78;;;;;;;5.26;71.83;99645.14;2212023;80;21072;-72
2021/09/05 03:07:02;;;;;;;23.52;7.92;;;;;;;5.25;71.86;99636.92;2211897;79;21032;-71
2021/09/05 03:10:03;;;;;;;19.52;5.75;;;;;;;5.20;72.42;99648.76;2212279;79;21108;-71
2021/09/05 03:13:05;;;;;;;24.07;7.55;;;;;;;5.05;72.41;99656.09;2211921;79;21052;-69
2021/09/05 03:16:06;;;;;;;24.77;7.45;;;;;;;4.95;72.20;99644.61;2211873;79;21536;-70
2021/09/05 03:19:08;;;;;;;22.40;6.30;;;;;;;5.09;72.27;99645.58;2211666;79;21128;-69
2021/09/05 03:22:09;;;;;;;19.60;6.05;;;;;;;5.07;71.93;99647.80;2211900;79;21036;-73
2021/09/05 03:25:11;;;;;;;22.20;6.28;;;;;;;5.00;72.10;99644.06;2211977;80;21073;-72
2021/09/05 03:28:12;;;;;;;22.58;6.78;;;;;;;4.94;72.11;99649.85;2211894;79;21017;-73
2021/09/05 03:31:13;;;;;;;20.12;6.33;;;;;;;4.97;72.60;99649.34;2212036;79;21048;-72
2021/09/05 03:34:15;;;;;;;29.00;10.88;;;;;;;5.06;72.58;99649.98;2211898;79;21045;-73
2021/09/05 03:37:16;;;;;;;21.70;6.37;;;;;;;5.16;72.00;99655.39;2211809;80;21531;-71
2021/09/05 03:40:18;;;;;;;18.98;5.40;;;;;;;5.05;71.86;99655.64;2211849;79;21048;-70
2021/09/05 03:43:19;;;;;;;17.65;5.10;;;;;;;4.99;72.21;99651.45;2211813;80;21033;-72
2021/09/05 03:46:21;;;;;;;17.70;4.75;;;;;;;5.01;72.06;99656.19;2211782;80;21595;-72
2021/09/05 03:49:23;;;;;;;21.23;5.30;;;;;;;4.90;71.99;99652.99;2211696;79;21009;-71
2021/09/05 03:52:25;;;;;;;20.65;6.28;;;;;;;4.85;72.40;99654.83;2211911;79;20949;-72
2021/09/05 03:55:27;;;;;;;;;;;;;;;4.86;72.52;99652.66;2214642;79;21020;-72
2021/09/05 03:58:28;;;;;;;26.85;6.50;;;;;;;4.85;72.38;99655.67;2211983;80;20386;-70
2021/09/05 04:01:30;;;;;;;27.55;7.80;;;;;;;4.67;72.37;99662.64;2212209;79;21028;-69
2021/09/05 04:04:32;;;;;;;22.87;6.75;;;;;;;4.64;72.44;99665.28;2212200;80;21464;-73
2021/09/05 04:07:34;;;;;;;23.12;5.58;;;;;;;4.68;72.34;99673.42;2212101;79;21056;-73
2021/09/05 04:10:36;;;;;;;19.30;4.83;;;;;;;4.75;72.50;99672.84;2212083;79;21615;-71
2021/09/05 04:13:37;;;;;;;27.58;12.65;;;;;;;4.75;72.58;99671.09;2211923;79;21081;-71
2021/09/05 04:16:39;;;;;;;22.93;8.45;;;;;;;4.78;72.43;99665.81;2212056;79;21503;-71
2021/09/05 04:19:40;;;;;;;20.65;5.25;;;;;;;4.82;72.66;99675.70;2212173;80;21000;-73
2021/09/05 04:22:41;;;;;;;19.70;5.70;;;;;;;4.96;72.86;99685.79;2212069;79;20984;-69
2021/09/05 04:25:43;;;;;;;19.17;5.53;;;;;;;5.07;71.96;99685.08;2212193;79;20958;-71
2021/09/05 04:28:44;;;;;;;17.48;5.47;;;;;;;5.08;71.90;99688.06;2212083;79;21004;-72
2021/09/05 04:31:46;;;;;;;20.55;5.22;;;;;;;5.13;71.85;99695.75;2212219;79;20934;-73
2021/09/05 04:34:47;;;;;;;20.45;4.60;;;;;;;5.16;72.04;99694.40;2212054;79;21021;-71
2021/09/05 04:37:48;;;;;;;26.10;5.78;;;;;;;5.25;72.37;99698.05;2212030;79;21544;-71
2021/09/05 04:40:50;;;;;;;17.20;4.50;;;;;;;5.34;72.31;99701.74;2211941;79;20973;-71
2021/09/05 04:43:51;;;;;;;20.77;4.95;;;;;;;5.44;72.40;99707.54;2212098;79;21080;-72
2021/09/05 04:46:53;;;;;;;16.02;4.50;;;;;;;5.45;72.22;99711.86;2211927;80;21485;-70
2021/09/05 04:49:54;;;;;;;25.57;6.17;;;;;;;5.58;71.97;99709.79;2212210;79;20953;-71
2021/09/05 04:52:56;;;;;;;20.25;5.58;;;;;;;5.73;72.04;99708.52;2212068;79;21032;-74
2021/09/05 04:55:57;;;;;;;17.67;5.03;;;;;;;5.93;71.80;99709.27;2212041;80;21500;-73
2021/09/05 04:58:59;;;;;;;19.82;4.72;;;;;;;6.17;71.97;99705.16;2212037;80;21033;-73
2021/09/05 05:02:00;;;;;;;27.98;6.83;;;;;;;6.43;71.95;99711.81;2212037;79;21528;-69
2021/09/05 05:05:01;;;;;;;22.17;5.47;;;;;;;6.55;71.77;99709.70;2212135;79;21012;-71
2021/09/05 05:08:03;;;;;;;17.95;4.92;;;;;;;6.70;71.96;99721.86;2211839;79;21082;-74
2021/09/05 05:11:04;;;;;;;18.62;5.00;;;;;;;6.88;71.78;99712.16;2211341;79;21012;-73
2021/09/05 05:14:06;;;;;;;19.30;5.20;;;;;;;7.04;71.78;99713.83;2212052;79;20984;-73
2021/09/05 05:17:07;;;;;;;18.15;4.90;;;;;;;7.39;71.66;99717.48;2212031;79;21520;-74
2021/09/05 05:20:11;;;;;;;20.70;5.62;;;;;;;7.63;70.86;99719.71;2212055;79;21037;-72
2021/09/05 05:23:12;;;;;;;23.18;8.58;;;;;;;7.89;71.29;99721.39;2201665;80;20993;-71
2021/09/05 05:26:13;;;;;;;22.65;6.70;;;;;;;8.12;71.13;99727.09;2212267;79;21814;-72
2021/09/05 05:29:15;;;;;;;24.45;8.40;;;;;;;8.39;71.01;99726.13;2212164;80;20993;-73
2021/09/05 05:32:16;;;;;;;21.85;8.53;;;;;;;8.67;70.73;99728.11;2212156;79;21028;-73
2021/09/05 05:35:18;;;;;;;23.18;8.28;;;;;;;8.90;70.37;99732.06;2212273;79;21067;-73
2021/09/05 05:38:20;;;;;;;20.97;6.80;;;;;;;9.00;70.16;99729.00;2211815;79;21562;-72
2021/09/05 05:41:21;;;;;;;20.65;6.72;;;;;;;9.15;70.37;99733.22;2212213;80;21000;-71
2021/09/05 05:44:22;;;;;;;20.25;6.67;;;;;;;9.25;70.44;99735.88;2212026;79;20970;-71
2021/09/05 05:47:27;;;;;;;21.37;6.47;;;;;;;9.60;70.37;99739.25;2212177;79;21025;-72
2021/09/05 05:50:27;;;;;;;20.97;6.78;;;;;;;9.97;70.27;99734.58;2201577;80;21001;-73
2021/09/05 05:53:29;;;;;;;19.77;6.50;;;;;;;10.40;69.94;99731.37;2212158;79;21032;-71
2021/09/05 05:56:30;;;;;;;23.07;6.95;;;;;;;10.75;69.19;99731.96;2212230;79;20972;-72
2021/09/05 05:59:31;;;;;;;21.02;6.17;;;;;;;10.96;68.78;99741.91;2212118;79;20973;-72
2021/09/05 06:02:33;;;;;;;20.23;6.35;;;;;;;11.20;68.69;99739.84;2212004;79;21532;-71
2021/09/05 06:05:34;;;;;;;24.77;6.37;;;;;;;11.45;69.08;99742.59;2212240;79;21759;-72
2021/09/05 06:08:37;;;;;;;23.65;6.80;;;;;;;11.69;68.58;99744.42;2212845;79;20953;-69
2021/09/05 06:11:38;;;;;;;;;;;;;;;12.01;68.51;99747.22;2214660;79;21001;-72
2021/09/05 06:14:40;;;;;;;18.65;5.87;;;;;;;12.29;68.21;99752.33;2212043;80;20373;-69
2021/09/05 06:17:41;;;;;;;19.17;5.95;;;;;;;12.62;68.29;99748.33;2212065;79;20922;-72
2021/09/05 06:20:42;;;;;;;19.48;5.53;;;;;;;13.35;68.06;99746.95;2212277;79;21499;-71
2021/09/05 06:23:44;;;;;;;16.93;4.60;;;;;;;13.35;68.06;99746.95;2212325;79;21057;-71
2021/09/05 06:26:45;;;;;;;15.53;3.97;;;;;;;13.74;65.69;99748.66;2212336;79;21068;-70
2021/09/05 06:29:47;;;;;;;14.18;3.50;;;;;;;14.07;64.97;99753.69;2212207;79;21076;-68
2021/09/05 06:32:48;;;;;;;14.93;4.03;;;;;;;14.29;64.25;99759.81;2212232;79;21033;-69
2021/09/05 06:35:49;;;;;;;15.77;3.67;;;;;;;14.48;63.23;99763.95;2212219;79;21048;-67
2021/09/05 06:38:51;;;;;;;13.68;3.50;;;;;;;14.68;63.93;99760.96;2211746;80;21072;-72
2021/09/05 06:41:53;;;;;;;15.40;3.50;;;;;;;14.91;62.76;99761.27;2212231;79;21061;-69
2021/09/05 06:44:54;;;;;;;14.47;3.60;;;;;;;15.31;62.16;99762.64;2212357;79;21056;-71
2021/09/05 06:47:55;;;;;;;13.73;3.47;;;;;;;15.31;62.16;99762.64;2212479;79;20997;-68
2021/09/05 06:50:57;;;;;;;12.70;3.60;;;;;;;15.48;61.95;99764.17;2212235;79;21081;-68
2021/09/05 06:53:58;;;;;;;11.03;3.23;;;;;;;15.74;61.48;99770.34;2212367;79;21017;-68
2021/09/05 06:57:04;;;;;;;10.37;3.10;;;;;;;15.91;60.74;99769.24;2212094;79;21104;-69
2021/09/05 07:00:06;;;;;;;10.98;3.05;;;;;;;16.12;60.18;99772.70;2211953;79;21056;-68
2021/09/05 07:03:07;;;;;;;9.57;2.70;;;;;;;16.23;59.39;99779.89;2212328;79;21076;-70
2021/09/05 07:06:09;;;;;;;12.23;3.07;;;;;;;16.42;57.96;99781.63;2212184;80;21048;-69
2021/09/05 07:09:10;;;;;;;8.57;2.60;;;;;;;16.45;58.86;99784.06;2212357;79;21037;-67
2021/09/05 07:12:11;;;;;;;10.87;2.90;;;;;;;16.73;58.31;99788.72;2217880;79;21115;-70
2021/09/05 07:15:14;;;;;;;7.60;2.70;;;;;;;16.99;58.42;99785.20;2225550;79;22145;-69
2021/09/05 07:18:16;;;;;;;12.50;2.77;;;;;;;17.18;57.83;99794.80;2225361;79;20976;-71
2021/09/05 07:21:17;;;;;;;10.33;2.90;;;;;;;17.41;56.94;99796.25;2225715;79;20995;-69
2021/09/05 07:24:19;;;;;;;6.50;2.47;;;;;;;17.65;56.65;99796.23;2225388;79;21012;-68
2021/09/05 07:27:20;;;;;;;8.65;2.37;;;;;;;17.88;56.22;99799.80;2225470;79;21451;-69
2021/09/05 07:30:22;;;;;;;8.48;2.30;;;;;;;18.05;55.46;99795.05;2225475;79;20984;-71
2021/09/05 07:33:23;;;;;;;10.53;2.12;;;;;;;18.20;54.62;99798.32;2225450;79;20972;-69
2021/09/05 07:36:24;;;;;;;7.78;2.10;;;;;;;18.33;53.36;99809.21;2225534;79;20967;-71
2021/09/05 07:39:26;;;;;;;7.62;2.10;;;;;;;18.43;53.25;99803.17;2225072;80;21044;-68
2021/09/05 07:42:28;;;;;;;7.30;2.27;;;;;;;18.43;47.74;99805.82;2225370;80;21526;-67
2021/09/05 07:45:29;;;;;;;5.95;2.25;;;;;;;18.26;51.65;99813.30;2225520;79;21007;-69
2021/09/05 07:48:31;;;;;;;7.92;2.37;;;;;;;18.43;51.20;99816.45;2225445;79;20972;-71
2021/09/05 07:51:32;;;;;;;9.70;2.25;;;;;;;18.50;49.81;99818.98;2225222;79;21009;-68
2021/09/05 07:54:33;;;;;;;7.42;2.12;;;;;;;18.61;49.60;99822.14;2225415;79;20993;-68
2021/09/05 07:57:36;;;;;;;9.28;1.62;;;;;;;18.64;45.78;99817.41;2225545;79;21585;-71
2021/09/05 08:00:38;;;;;;;5.95;1.77;;;;;;;18.72;46.20;99833.23;2225307;79;20964;-68
2021/09/05 08:03:39;;;;;;;10.00;2.22;;;;;;;18.72;46.20;99833.23;2225370;79;21482;-66
2021/09/05 08:06:41;;;;;;;4.83;1.75;;;;;;;18.78;48.68;99836.76;2225377;80;20976;-72
2021/09/05 08:09:42;;;;;;;7.35;1.80;;;;;;;18.91;45.93;99841.97;2225441;79;21456;-70
2021/09/05 08:12:44;;;;;;;4.10;1.40;;;;;;;19.13;47.79;99848.56;2218344;80;21036;-69
2021/09/05 08:15:45;;;;;;;5.37;1.75;;;;;;;19.34;44.33;99851.81;2211992;80;21578;-71
2021/09/05 08:18:47;;;;;;;7.05;1.70;;;;;;;19.44;44.58;99844.77;2211966;79;21104;-66
2021/09/05 08:21:48;;;;;;;4.37;1.67;;;;;;;19.41;43.11;99845.48;2211983;79;21531;-71
2021/09/05 08:24:50;;;;;;;5.83;1.72;;;;;;;19.46;43.07;99840.64;2212085;79;21004;-73
2021/09/05 08:27:51;;;;;;;6.22;1.55;;;;;;;19.58;44.53;99846.76;2212026;79;21072;-70
2021/09/05 08:30:52;;;;;;;8.03;1.80;;;;;;;19.63;45.66;99845.91;2212260;79;20964;-69
2021/09/05 08:33:54;;;;;;;7.42;1.90;;;;;;;19.89;45.36;99849.92;2212031;79;20973;-68
2021/09/05 08:36:55;;;;;;;4.10;1.42;;;;;;;20.11;43.83;99842.78;2212002;79;21564;-70
2021/09/05 08:39:57;;;;;;;6.03;1.57;;;;;;;20.08;43.55;99845.23;2211951;79;21045;-72
2021/09/05 08:42:58;;;;;;;7.08;1.92;;;;;;;20.29;44.02;99848.87;2211985;80;20984;-68
2021/09/05 08:46:00;;;;;;;7.72;1.60;;;;;;;20.38;42.79;99846.23;2212036;80;21531;-71
2021/09/05 08:49:01;;;;;;;5.55;2.10;;;;;;;20.52;41.86;99849.55;2212216;80;21037;-70
2021/09/05 08:52:03;;;;;;;8.53;2.12;;;;;;;20.67;43.14;99849.56;2212216;79;21533;-68
2021/09/05 08:55:04;;;;;;;6.40;2.02;;;;;;;20.94;42.62;99854.30;2212318;79;20929;-68
2021/09/05 08:58:06;;;;;;;6.28;1.80;;;;;;;21.06;41.74;99851.06;2212203;80;20965;-71
2021/09/05 09:01:07;;;;;;;8.50;1.70;;;;;;;20.97;39.70;99854.52;2212549;79;20957;-68
2021/09/05 09:04:10;;;;;;;7.03;2.25;;;;;;;20.89;39.26;99848.55;2212201;79;20958;-72
2021/09/05 09:07:12;;;;;;;5.80;1.75;;;;;;;20.82;41.74;99853.23;2212080;79;21040;-70
2021/09/05 09:10:13;;;;;;;7.67;2.17;;;;;;;20.68;38.80;99853.09;2212181;79;21558;-70
2021/09/05 09:13:14;;;;;;;10.32;1.95;;;;;;;20.64;37.72;99851.13;2212328;79;21191;-70
2021/09/05 09:16:16;;;;;;;6.58;1.80;;;;;;;20.62;37.02;99856.27;2212223;79;21072;-69
2021/09/05 09:19:18;;;;;;;6.97;2.10;;;;;;;20.37;38.32;99859.23;2212319;79;20946;-71
2021/09/05 09:22:19;;;;;;;6.20;1.90;;;;;;;20.68;40.39;99861.09;2212159;79;21000;-71
2021/09/05 09:25:21;;;;;;;8.05;2.00;;;;;;;20.80;37.02;99856.00;2212142;79;20976;-67
2021/09/05 09:28:22;;;;;;;7.25;1.98;;;;;;;20.81;38.43;99851.53;2212180;79;21025;-72
2021/09/05 09:31:24;;;;;;;7.00;2.27;;;;;;;21.07;38.86;99854.06;2212173;79;21551;-71
2021/09/05 09:34:25;;;;;;;6.42;2.08;;;;;;;21.18;38.89;99860.28;2212138;79;21044;-70
2021/09/05 09:37:26;;;;;;;4.45;1.90;;;;;;;21.13;38.91;99863.34;2212167;80;21053;-67
2021/09/05 09:40:28;;;;;;;8.60;2.08;;;;;;;21.12;39.17;99851.00;2212174;79;21083;-69
2021/09/05 09:43:29;;;;;;;4.95;2.00;;;;;;;21.06;36.03;99856.86;2212135;79;21011;-67
2021/09/05 09:46:31;;;;;;;10.98;2.30;;;;;;;20.67;38.19;99852.23;2212148;79;21579;-71
2021/09/05 09:49:32;;;;;;;3.55;1.60;;;;;;;20.79;37.47;99846.34;2212157;79;21068;-71
2021/09/05 09:52:34;;;;;;;7.25;2.08;;;;;;;20.53;38.30;99848.09;2212159;80;21083;-67
2021/09/05 09:55:36;;;;;;;;;;;;;;;21.01;38.69;99847.11;2214733;79;21104;-72
2021/09/05 09:58:38;;;;;;;7.70;2.02;;;;;;;20.87;36.90;99843.81;2212155;80;20396;-69
2021/09/05 10:01:39;;;;;;;8.50;1.98;;;;;;;20.56;39.30;99845.66;2212141;79;20984;-72
2021/09/05 10:04:40;;;;;;;4.78;1.65;;;;;;;20.86;35.82;99838.16;2212151;79;21536;-68
2021/09/05 10:07:42;;;;;;;5.47;1.90;;;;;;;20.69;38.34;99842.30;2212180;79;21088;-73
2021/09/05 10:10:44;;;;;;;7.67;1.95;;;;;;;21.05;38.21;99845.36;2212001;80;21516;-69
2021/09/05 10:13:45;;;;;;;3.92;1.45;;;;;;;20.64;36.40;99841.80;2221435;79;21035;-69
2021/09/05 10:16:47;;;;;;;5.50;1.72;;;;;;;20.32;38.64;99847.27;2225526;79;20964;-67
2021/09/05 10:19:49;;;;;;;6.40;2.02;;;;;;;20.96;37.79;99846.19;2225189;79;20997;-72
2021/09/05 10:22:50;;;;;;;8.88;2.30;;;;;;;21.05;37.10;99844.53;2225520;79;21004;-68
2021/09/05 10:25:52;;;;;;;10.40;2.47;;;;;;;20.60;37.27;99847.05;2225497;79;21448;-68
2021/09/05 10:28:54;;;;;;;;;;;;;;;20.85;37.77;99844.45;2228080;79;21019;-70
2021/09/05 10:31:55;;;;;;;6.67;1.93;;;;;;;21.76;38.91;99841.67;2225756;80;20146;-68
2021/09/05 10:34:57;;;;;;;8.03;2.00;;;;;;;22.61;37.87;99838.30;2225497;79;20945;-68
2021/09/05 10:37:58;;;;;;;6.20;1.95;;;;;;;23.26;35.78;99845.45;2225415;79;21024;-70
2021/09/05 10:41:00;;;;;;;6.87;1.77;;;;;;;23.24;35.30;99844.78;2225118;79;20975;-72
2021/09/05 10:44:01;;;;;;;5.17;1.70;;;;;;;22.78;34.83;99845.55;2225488;79;20941;-67
2021/09/05 10:47:03;;;;;;;6.92;2.00;;;;;;;22.74;34.33;99844.66;2225641;79;21059;-68
2021/09/05 10:50:04;;;;;;;;;;;;;;;22.54;36.71;99842.08;2228005;80;21047;-67
2021/09/05 10:53:06;;;;;;;7.75;2.30;;;;;;;23.13;35.62;99836.45;2225511;80;20086;-71
2021/09/05 10:56:08;;;;;;;6.87;1.80;;;;;;;23.76;34.62;99829.38;2225732;79;20981;-68
2021/09/05 10:59:11;;;;;;;5.25;1.70;;;;;;;23.45;33.11;99842.66;2225361;80;21015;-69
2021/09/05 11:02:13;;;;;;;5.50;1.77;;;;;;;23.03;33.90;99844.53;2225340;79;20976;-71
2021/09/05 11:05:14;;;;;;;7.10;2.08;;;;;;;22.33;33.25;99848.13;2225343;80;21551;-72
2021/09/05 11:08:15;;;;;;;7.47;2.00;;;;;;;21.63;34.32;99848.63;2225611;79;20991;-72
2021/09/05 11:11:17;;;;;;;6.37;1.92;;;;;;;21.23;35.28;99853.56;2225502;79;21004;-69
2021/09/05 11:14:18;;;;;;;6.37;1.67;;;;;;;20.61;34.66;99854.07;2214629;79;20969;-71
2021/09/05 11:17:20;;;;;;;6.95;2.10;;;;;;;20.15;35.13;99849.54;2212085;79;21080;-69
2021/09/05 11:20:21;;;;;;;4.62;1.55;;;;;;;19.93;37.27;99847.86;2212051;79;21540;-68
2021/09/05 11:23:23;;;;;;;3.30;1.47;;;;;;;20.04;35.51;99858.45;2211994;79;21049;-68
2021/09/05 11:26:24;;;;;;;7.72;1.90;;;;;;;20.13;35.66;99846.64;2211983;79;21555;-72
2021/09/05 11:29:25;;;;;;;31.12;12.95;;;;;;;20.92;36.69;99844.27;2212145;79;21091;-72
2021/09/05 11:32:27;;;;;;;6.72;1.80;;;;;;;21.79;36.07;99841.89;2211965;80;21097;-70
2021/09/05 11:35:28;;;;;;;6.45;2.22;;;;;;;22.19;35.24;99834.17;2212183;79;21009;-72
2021/09/05 11:38:30;;;;;;;5.15;1.90;;;;;;;22.74;36.58;99835.30;2212052;80;21013;-69
2021/09/05 11:41:32;;;;;;;5.40;2.00;;;;;;;22.88;34.54;99830.79;2211553;79;21104;-68
2021/09/05 11:44:35;;;;;;;3.37;1.60;;;;;;;23.29;34.71;99831.80;2212072;79;21039;-72
2021/09/05 11:47:36;;;;;;;5.58;2.00;;;;;;;23.78;34.23;99829.58;2212030;80;20954;-71
2021/09/05 11:50:38;;;;;;;8.40;2.30;;;;;;;24.17;33.89;99831.07;2212198;79;21480;-72
2021/09/05 11:53:39;;;;;;;6.00;2.08;;;;;;;23.37;31.52;99836.39;2212165;79;21033;-71
2021/09/05 11:56:41;;;;;;;8.50;2.30;;;;;;;22.61;32.50;99826.27;2212132;80;21575;-71
2021/09/05 11:59:42;;;;;;;8.08;1.77;;;;;;;21.88;33.73;99833.52;2212168;79;21084;-72
2021/09/05 12:02:44;;;;;;;;;;;;;;;21.27;36.29;99838.11;2214544;79;21080;-71
2021/09/05 12:05:46;;;;;;;3.77;1.70;;;;;;;20.54;35.47;99838.26;2212143;80;20127;-68
2021/09/05 12:08:48;;;;;;;5.53;1.90;;;;;;;19.92;35.79;99842.16;2212058;79;21535;-71
2021/09/05 12:11:50;;;;;;;6.45;1.87;;;;;;;19.60;36.15;99836.36;2211949;79;21029;-73
2021/09/05 12:14:51;;;;;;;9.95;1.87;;;;;;;19.56;36.94;99834.91;2212878;80;21560;-73
2021/09/05 12:17:53;;;;;;;5.22;1.80;;;;;;;20.03;36.84;99831.95;2212094;80;21076;-72
2021/09/05 12:20:54;;;;;;;6.05;1.85;;;;;;;21.06;35.73;99825.72;2212407;79;20937;-69
2021/09/05 12:23:56;;;;;;;4.08;1.65;;;;;;;21.90;35.02;99805.69;2212451;79;20954;-72
2021/09/05 12:26:57;;;;;;;5.95;2.10;;;;;;;21.48;35.16;99825.99;2212009;80;21038;-73
2021/09/05 12:29:58;;;;;;;8.35;1.90;;;;;;;21.42;35.44;99826.06;2212246;79;21009;-71
2021/09/05 12:33:00;;;;;;;4.03;1.60;;;;;;;21.88;34.13;99815.69;2212260;79;21032;-69
2021/09/05 12:36:01;;;;;;;6.05;1.90;;;;;;;22.50;35.64;99815.28;2212226;80;21016;-73
2021/09/05 12:39:03;;;;;;;5.95;2.08;;;;;;;22.92;33.42;99813.46;2212293;79;21492;-71
2021/09/05 12:42:05;;;;;;;5.22;2.30;;;;;;;23.22;34.96;99816.84;2211875;79;21017;-72
2021/09/05 12:45:06;;;;;;;6.47;2.22;;;;;;;23.58;32.60;99815.51;2212203;79;21571;-68
2021/09/05 12:48:08;;;;;;;4.17;1.57;;;;;;;23.40;31.88;99814.66;2212225;79;21033;-72
2021/09/05 12:51:09;;;;;;;5.55;1.85;;;;;;;23.35;33.18;99816.47;2212198;79;21021;-68
2021/09/05 12:54:11;;;;;;;6.30;1.87;;;;;;;23.32;32.13;99818.94;2212234;79;21020;-70
2021/09/05 12:57:12;;;;;;;5.37;2.00;;;;;;;23.46;31.68;99812.23;2212191;79;20973;-71
2021/09/05 13:00:13;;;;;;;5.78;2.10;;;;;;;23.51;31.38;99817.12;2212206;79;21060;-72
2021/09/05 13:03:15;;;;;;;6.97;2.20;;;;;;;23.34;31.45;99814.77;2212134;80;21092;-70
2021/09/05 13:06:16;;;;;;;5.90;1.90;;;;;;;22.57;33.06;99814.19;2212135;79;21491;-70
2021/09/05 13:09:18;;;;;;;8.20;2.50;;;;;;;21.74;33.64;99823.63;2212419;79;21019;-71
2021/09/05 13:12:19;;;;;;;5.20;1.90;;;;;;;21.15;35.44;99825.38;2212159;79;20961;-70
2021/09/05 13:15:21;;;;;;;10.58;2.87;;;;;;;20.69;35.72;99822.30;2211618;79;21140;-70
2021/09/05 13:18:23;;;;;;;5.97;2.37;;;;;;;20.46;36.25;99825.61;2212156;79;21096;-69
2021/09/05 13:21:24;;;;;;;9.30;2.62;;;;;;;20.15;35.68;99822.07;2212339;80;21016;-70
2021/09/05 13:24:26;;;;;;;10.50;2.70;;;;;;;19.85;36.07;99823.19;2214493;80;20979;-70
2021/09/05 13:27:27;;;;;;;12.93;3.00;;;;;;;19.70;37.24;99831.13;2222721;80;21505;-69
2021/09/05 13:30:29;;;;;;;5.10;1.80;;;;;;;19.78;38.00;99825.14;2222790;80;20976;-70
2021/09/05 13:33:30;;;;;;;6.15;1.85;;;;;;;20.73;38.25;99822.39;2220804;80;21006;-70
2021/09/05 13:36:32;;;;;;;4.95;2.00;;;;;;;21.72;34.44;99818.07;2222163;79;20921;-72
2021/09/05 13:39:33;;;;;;;5.62;1.90;;;;;;;22.31;35.79;99806.78;2220517;80;21302;-69
2021/09/05 13:42:35;;;;;;;7.72;1.90;;;;;;;23.00;33.88;99811.36;2222238;80;21558;-70
2021/09/05 13:45:37;;;;;;;6.10;1.72;;;;;;;23.38;33.36;99804.62;2216320;80;21035;-69
2021/09/05 13:48:39;;;;;;;5.15;2.10;;;;;;;23.57;32.33;99809.80;2221633;80;21581;-72
2021/09/05 13:51:40;;;;;;;9.38;2.20;;;;;;;23.04;31.79;99813.26;2220739;79;20945;-69
2021/09/05 13:54:41;;;;;;;6.67;1.67;;;;;;;22.74;31.49;99816.10;2221740;80;20944;-73
2021/09/05 13:57:43;;;;;;;4.80;1.82;;;;;;;22.65;32.21;99823.66;2212292;80;21433;-72
2021/09/05 14:00:44;;;;;;;5.83;2.00;;;;;;;22.38;32.69;99813.27;2212146;80;21044;-70
2021/09/05 14:03:46;;;;;;;7.10;2.30;;;;;;;21.68;33.94;99828.68;2212063;79;21563;-69
2021/09/05 14:06:47;;;;;;;6.65;1.98;;;;;;;21.07;33.71;99823.38;2212239;79;20977;-72
2021/09/05 14:09:50;;;;;;;6.50;2.17;;;;;;;20.67;34.86;99825.58;2211815;80;21109;-70
2021/09/05 14:12:52;;;;;;;8.33;2.40;;;;;;;20.43;35.70;99832.55;2212331;80;21072;-70
2021/09/05 14:15:53;;;;;;;8.15;2.40;;;;;;;20.78;36.29;99832.64;2212018;79;21104;-70